createdAt,value
2023-02-14T00:00:19.584Z,11.38
2023-02-14T00:02:22.937Z,11.35
2023-02-14T00:04:26.444Z,12.27
2023-02-14T00:06:32.792Z,11.00
2023-02-14T00:08:36.737Z,10.68
2023-02-14T00:10:40.132Z,10.30
2023-02-14T00:12:43.377Z,11.63
2023-02-14T00:15:05.409Z,11.88
2023-02-14T00:17:08.668Z,11.82
2023-02-14T00:19:14.513Z,10.80
2023-02-14T00:21:17.899Z,10.48
2023-02-14T00:23:21.101Z,10.57
2023-02-14T00:25:24.479Z,9.32
2023-02-14T00:27:27.802Z,7.97
2023-02-14T00:29:32.953Z,7.88
2023-02-14T00:31:39.819Z,9.60
2023-02-14T00:35:46.211Z,7.78
2023-02-14T00:39:55.882Z,6.40
2023-02-14T00:41:59.240Z,7.25
2023-02-14T00:44:02.817Z,6.60
2023-02-14T00:46:06.430Z,6.82
2023-02-14T00:48:11.782Z,7.85
2023-02-14T00:50:15.042Z,8.15
2023-02-14T00:52:18.414Z,7.70
2023-02-14T00:54:21.652Z,6.15
2023-02-14T00:56:25.116Z,9.40
2023-02-14T00:58:28.686Z,9.55
2023-02-14T01:00:32.056Z,8.45
2023-02-14T01:02:35.586Z,9.18
2023-02-14T01:04:40.241Z,7.97
2023-02-14T01:06:43.641Z,9.05
2023-02-14T01:08:46.845Z,9.13
2023-02-14T01:10:50.076Z,9.48
2023-02-14T01:12:53.309Z,8.70
2023-02-14T01:14:56.861Z,9.85
2023-02-14T01:17:00.313Z,9.50
2023-02-14T01:19:03.701Z,9.13
2023-02-14T01:21:20.240Z,8.77
2023-02-14T01:23:25.092Z,8.38
2023-02-14T01:25:28.707Z,8.43
2023-02-14T01:27:32.161Z,9.68
2023-02-14T01:29:35.432Z,9.38
2023-02-14T01:31:39.430Z,10.32
2023-02-14T01:33:44.456Z,10.20
2023-02-14T01:37:52.545Z,9.07
2023-02-14T01:41:59.223Z,10.77
2023-02-14T01:44:04.366Z,11.00
2023-02-14T01:46:07.678Z,10.20
2023-02-14T01:48:11.555Z,11.68
2023-02-14T01:50:22.650Z,11.13
2023-02-14T01:52:30.209Z,12.63
2023-02-14T01:54:39.619Z,11.75
2023-02-14T01:56:49.791Z,10.93
2023-02-14T01:58:59.041Z,11.48
2023-02-14T02:01:03.085Z,11.38
2023-02-14T02:03:10.257Z,12.07
2023-02-14T02:05:14.815Z,12.35
2023-02-14T02:07:22.765Z,12.63
2023-02-14T02:09:32.457Z,11.93
2023-02-14T02:11:37.957Z,11.38
2023-02-14T02:13:41.221Z,11.60
2023-02-14T02:15:57.938Z,12.25
2023-02-14T02:18:10.968Z,11.40
2023-02-14T02:20:46.415Z,12.48
2023-02-14T02:23:30.560Z,12.95
2023-02-14T02:25:56.584Z,12.00
2023-02-14T02:28:42.607Z,12.02
2023-02-14T02:31:17.363Z,10.98
2023-02-14T02:34:08.093Z,10.38
2023-02-14T02:36:35.505Z,10.60
2023-02-14T02:38:48.786Z,12.27
2023-02-14T02:41:04.217Z,10.48
2023-02-14T02:43:16.618Z,13.35
2023-02-14T02:45:28.291Z,13.07
2023-02-14T02:47:34.990Z,12.45
2023-02-14T02:50:04.306Z,13.27
2023-02-14T02:52:33.546Z,12.52
2023-02-14T02:54:43.272Z,13.02
2023-02-14T02:56:51.282Z,12.85
2023-02-14T02:58:58.778Z,12.15
2023-02-14T03:01:08.351Z,11.73
2023-02-14T03:03:39.508Z,11.05
2023-02-14T03:05:43.894Z,11.75
2023-02-14T03:07:50.355Z,11.02
2023-02-14T03:09:57.936Z,10.95
2023-02-14T03:12:12.222Z,11.52
2023-02-14T03:14:21.344Z,11.27
2023-02-14T03:16:47.742Z,12.07
2023-02-14T03:19:09.565Z,12.80
2023-02-14T03:21:26.316Z,13.30
2023-02-14T03:23:33.892Z,10.80
2023-02-14T03:25:48.015Z,11.93
2023-02-14T03:28:00.141Z,12.65
2023-02-14T03:30:12.239Z,12.30
2023-02-14T03:32:20.590Z,12.48
2023-02-14T03:34:32.320Z,13.60
2023-02-14T03:36:41.956Z,14.07
2023-02-14T03:38:52.059Z,13.43
2023-02-14T03:41:00.081Z,13.80
2023-02-14T03:43:09.752Z,13.50
2023-02-14T03:45:20.407Z,13.50
2023-02-14T03:47:27.052Z,13.80
2023-02-14T03:49:36.005Z,13.98
2023-02-14T03:51:40.523Z,15.05
2023-02-14T03:53:50.285Z,14.75
2023-02-14T03:56:01.209Z,11.98
2023-02-14T03:58:11.876Z,13.70
2023-02-14T04:00:18.406Z,14.93
2023-02-14T04:02:26.406Z,14.23
2023-02-14T04:04:35.894Z,14.45
2023-02-14T04:06:39.214Z,13.95
2023-02-14T04:08:42.639Z,12.15
2023-02-14T04:10:47.534Z,14.27
2023-02-14T04:12:50.894Z,13.95
2023-02-14T04:14:54.137Z,13.85
2023-02-14T04:17:14.893Z,13.70
2023-02-14T04:19:24.062Z,12.88
2023-02-14T04:21:27.384Z,13.13
2023-02-14T04:23:30.793Z,11.98
2023-02-14T04:25:34.116Z,10.52
2023-02-14T04:27:38.729Z,11.80
2023-02-14T04:29:44.773Z,13.23
2023-02-14T04:31:48.146Z,12.60
2023-02-14T04:33:51.509Z,12.48
2023-02-14T04:35:54.722Z,11.88
2023-02-14T04:37:57.941Z,13.00
2023-02-14T04:40:01.149Z,10.88
2023-02-14T04:42:05.160Z,11.23
2023-02-14T04:44:09.817Z,12.35
2023-02-14T04:46:13.046Z,10.35
2023-02-14T04:48:16.339Z,10.90
2023-02-14T04:50:19.575Z,11.18
2023-02-14T04:52:22.789Z,10.73
2023-02-14T04:54:26.244Z,11.32
2023-02-14T04:56:29.474Z,11.30
2023-02-14T04:58:32.833Z,12.02
2023-02-14T05:00:37.678Z,12.05
2023-02-14T05:02:40.962Z,10.38
2023-02-14T05:04:44.292Z,12.05
2023-02-14T05:06:47.909Z,10.82
2023-02-14T05:08:51.184Z,11.25
2023-02-14T05:10:56.001Z,11.02
2023-02-14T05:12:59.406Z,11.52
2023-02-14T05:15:02.687Z,11.30
2023-02-14T05:17:07.347Z,11.43
2023-02-14T05:19:10.644Z,11.10
2023-02-14T05:21:14.041Z,10.50
2023-02-14T05:23:17.316Z,10.65
2023-02-14T05:25:20.632Z,9.75
2023-02-14T05:27:23.928Z,8.48
2023-02-14T05:29:27.177Z,9.32
2023-02-14T05:31:30.546Z,9.55
2023-02-14T05:33:35.253Z,9.50
2023-02-14T05:35:38.472Z,9.13
2023-02-14T05:37:41.759Z,9.63
2023-02-14T05:39:44.975Z,8.30
2023-02-14T05:41:48.244Z,8.88
2023-02-14T05:43:51.590Z,7.78
2023-02-14T05:45:55.450Z,9.20
2023-02-14T05:47:58.897Z,8.80
2023-02-14T05:50:03.616Z,7.78
2023-02-14T05:52:07.458Z,9.07
2023-02-14T05:54:11.146Z,9.48
2023-02-14T05:56:14.523Z,9.75
2023-02-14T05:58:17.740Z,9.70
2023-02-14T06:00:22.426Z,9.60
2023-02-14T06:02:25.793Z,10.38
2023-02-14T06:04:29.102Z,9.50
2023-02-14T06:06:36.279Z,8.57
2023-02-14T06:08:40.125Z,9.90
2023-02-14T06:10:43.413Z,10.13
2023-02-14T06:12:46.933Z,10.85
2023-02-14T06:14:50.196Z,9.73
2023-02-14T06:16:53.461Z,11.07
2023-02-14T06:18:56.744Z,10.30
2023-02-14T06:21:00.277Z,10.05
2023-02-14T06:23:05.389Z,10.88
2023-02-14T06:25:09.002Z,9.75
2023-02-14T06:27:13.184Z,10.40
2023-02-14T06:29:18.320Z,9.90
2023-02-14T06:33:24.730Z,10.57
2023-02-14T06:35:27.984Z,9.10
2023-02-14T06:37:31.232Z,10.02
2023-02-14T06:39:36.197Z,10.68
2023-02-14T06:41:39.431Z,11.77
2023-02-14T06:43:42.764Z,10.32
2023-02-14T06:45:48.088Z,9.95
2023-02-14T06:47:51.358Z,8.88
2023-02-14T06:49:54.720Z,7.03
2023-02-14T06:51:57.993Z,8.73
2023-02-14T06:54:01.303Z,9.52
2023-02-14T06:56:06.939Z,8.70
2023-02-14T06:58:10.177Z,8.75
2023-02-14T07:00:14.925Z,8.60
2023-02-14T07:02:18.479Z,7.43
2023-02-14T07:04:21.817Z,6.35
2023-02-14T07:06:25.130Z,6.15
2023-02-14T07:08:28.364Z,5.57
2023-02-14T07:10:31.698Z,5.32
2023-02-14T07:12:36.312Z,6.57
2023-02-14T07:14:39.607Z,5.50
2023-02-14T07:16:43.143Z,5.28
2023-02-14T07:18:46.493Z,5.80
2023-02-14T07:20:50.925Z,4.80
2023-02-14T07:22:55.130Z,6.32
2023-02-14T07:24:58.357Z,6.50
2023-02-14T07:27:01.752Z,6.38
2023-02-14T07:29:06.440Z,7.32
2023-02-14T07:31:09.808Z,8.13
2023-02-14T07:33:13.513Z,6.47
2023-02-14T07:35:17.107Z,6.97
2023-02-14T07:37:20.656Z,7.07
2023-02-14T07:39:24.024Z,5.75
2023-02-14T07:41:27.404Z,6.32
2023-02-14T07:43:30.888Z,5.40
2023-02-14T07:45:35.648Z,5.88
2023-02-14T07:47:38.893Z,5.65
2023-02-14T07:49:42.188Z,6.05
2023-02-14T07:51:45.627Z,5.53
2023-02-14T07:53:48.984Z,5.00
2023-02-14T07:55:53.306Z,5.13
2023-02-14T07:57:56.653Z,5.43
2023-02-14T08:00:00.012Z,4.68
2023-02-14T08:02:05.001Z,4.97
2023-02-14T08:04:08.250Z,5.40
2023-02-14T08:06:11.593Z,4.78
2023-02-14T08:08:14.865Z,6.28
2023-02-14T08:10:18.602Z,6.32
2023-02-14T08:12:39.594Z,6.28
2023-02-14T08:14:43.629Z,4.95
2023-02-14T08:16:46.914Z,5.05
2023-02-14T08:18:51.651Z,5.85
2023-02-14T08:20:54.916Z,5.05
2023-02-14T08:22:58.312Z,6.03
2023-02-14T08:25:01.505Z,5.57
2023-02-14T08:27:05.080Z,5.97
2023-02-14T08:29:08.309Z,7.15
2023-02-14T08:31:12.568Z,7.03
2023-02-14T08:33:16.169Z,5.75
2023-02-14T08:35:20.853Z,5.72
2023-02-14T08:37:24.133Z,4.93
2023-02-14T08:39:27.385Z,5.28
2023-02-14T08:41:30.634Z,4.35
2023-02-14T08:43:34.486Z,3.88
2023-02-14T08:45:37.913Z,3.72
2023-02-14T08:47:41.262Z,3.60
2023-02-14T08:49:44.817Z,3.25
2023-02-14T08:51:49.485Z,3.17
2023-02-14T08:53:53.792Z,2.42
2023-02-14T08:55:57.121Z,3.08
2023-02-14T08:58:00.781Z,3.33
2023-02-14T09:00:05.356Z,2.95
2023-02-14T09:02:08.739Z,3.20
2023-02-14T09:04:12.127Z,3.42
2023-02-14T09:06:17.910Z,2.80
2023-02-14T09:08:23.010Z,2.42
2023-02-14T09:10:28.478Z,1.92
2023-02-14T09:12:32.059Z,2.35
2023-02-14T09:14:37.123Z,2.13
2023-02-14T09:16:41.074Z,2.00
2023-02-14T09:18:45.220Z,1.80
2023-02-14T09:20:48.688Z,1.77
2023-02-14T09:22:52.424Z,1.67
2023-02-14T09:24:57.466Z,2.70
2023-02-14T09:29:04.547Z,2.42
2023-02-14T09:31:13.356Z,2.00
2023-02-14T09:33:16.745Z,2.05
2023-02-14T09:35:20.173Z,2.55
2023-02-14T09:37:40.865Z,2.38
2023-02-14T09:39:44.103Z,2.05
2023-02-14T09:42:38.273Z,2.30
2023-02-14T09:44:45.041Z,1.83
2023-02-14T09:46:54.355Z,2.38
2023-02-14T09:48:59.386Z,1.67
2023-02-14T09:51:06.743Z,2.10
2023-02-14T09:53:21.581Z,2.58
2023-02-14T09:55:32.467Z,3.13
2023-02-14T09:57:46.724Z,2.28
2023-02-14T09:59:54.666Z,1.73
2023-02-14T10:02:10.718Z,2.70
2023-02-14T10:04:28.630Z,2.85
2023-02-14T10:06:46.751Z,3.38
2023-02-14T10:09:03.739Z,2.08
2023-02-14T10:11:10.089Z,2.00
2023-02-14T10:13:20.983Z,2.60
2023-02-14T10:15:28.486Z,2.92
2023-02-14T10:17:41.376Z,2.78
2023-02-14T10:19:50.052Z,2.40
2023-02-14T10:21:56.692Z,3.20
2023-02-14T10:24:08.968Z,2.90
2023-02-14T10:26:17.327Z,3.13
2023-02-14T10:28:31.337Z,4.13
2023-02-14T10:30:39.881Z,3.20
2023-02-14T10:32:47.679Z,3.60
2023-02-14T10:34:53.094Z,3.83
2023-02-14T10:37:15.757Z,3.30
2023-02-14T10:39:36.137Z,3.80
2023-02-14T10:41:49.241Z,3.88
2023-02-14T10:44:02.611Z,4.85
2023-02-14T10:46:18.179Z,2.72
2023-02-14T10:48:31.922Z,3.28
2023-02-14T10:50:44.483Z,2.75
2023-02-14T10:52:59.036Z,2.90
2023-02-14T10:55:20.176Z,2.78
2023-02-14T10:57:37.679Z,4.03
2023-02-14T10:59:52.263Z,3.65
2023-02-14T11:01:58.331Z,3.13
2023-02-14T11:04:06.637Z,3.78
2023-02-14T11:06:10.553Z,3.45
2023-02-14T11:08:23.339Z,2.78
2023-02-14T11:10:29.996Z,3.90
2023-02-14T11:12:35.037Z,3.05
2023-02-14T11:14:40.421Z,2.20
2023-02-14T11:16:45.196Z,2.72
2023-02-14T11:21:03.099Z,2.40
2023-02-14T11:23:22.364Z,2.30
2023-02-14T11:25:28.211Z,2.17
2023-02-14T11:27:32.645Z,3.30
2023-02-14T11:29:43.577Z,3.10
2023-02-14T11:31:48.810Z,2.95
2023-02-14T11:33:52.087Z,3.45
2023-02-14T11:35:55.822Z,3.22
2023-02-14T11:37:59.533Z,2.88
2023-02-14T11:40:03.979Z,3.90
2023-02-14T11:42:07.397Z,3.72
2023-02-14T11:44:22.386Z,3.85
2023-02-14T11:46:30.501Z,3.00
2023-02-14T11:48:39.132Z,3.10
2023-02-14T11:50:44.426Z,2.63
2023-02-14T11:54:55.296Z,2.78
2023-02-14T11:57:05.374Z,2.65
2023-02-14T11:59:08.823Z,3.20
2023-02-14T12:01:15.432Z,2.88
2023-02-14T12:03:20.793Z,3.30
2023-02-14T12:05:30.407Z,3.63
2023-02-14T12:07:37.633Z,2.90
2023-02-14T12:09:43.327Z,3.20
2023-02-14T12:11:57.376Z,3.35
2023-02-14T12:14:00.745Z,2.47
2023-02-14T12:16:04.253Z,3.30
2023-02-14T12:18:26.073Z,4.20
2023-02-14T12:20:39.725Z,2.70
2023-02-14T12:22:48.770Z,2.92
2023-02-14T12:24:58.482Z,3.28
2023-02-14T12:27:17.327Z,3.20
2023-02-14T12:29:26.482Z,3.15
2023-02-14T12:31:31.719Z,2.78
2023-02-14T12:33:35.132Z,2.70
2023-02-14T12:35:53.300Z,2.72
2023-02-14T12:38:07.522Z,2.95
2023-02-14T12:40:25.149Z,2.88
2023-02-14T12:42:38.559Z,3.00
2023-02-14T12:44:53.326Z,3.00
2023-02-14T12:47:19.003Z,2.92
2023-02-14T12:49:49.648Z,2.60
2023-02-14T12:52:04.912Z,2.85
2023-02-14T12:54:28.147Z,2.70
2023-02-14T12:56:43.322Z,2.83
2023-02-14T12:58:57.991Z,2.63
2023-02-14T13:01:24.742Z,3.05
2023-02-14T13:04:04.393Z,2.78
2023-02-14T13:06:19.827Z,3.17
2023-02-14T13:08:53.865Z,2.30
2023-02-14T13:11:03.254Z,2.28
2023-02-14T13:13:14.516Z,2.78
2023-02-14T13:15:29.671Z,3.15
2023-02-14T13:17:39.798Z,3.65
2023-02-14T13:19:50.318Z,2.60
2023-02-14T13:21:55.572Z,2.78
2023-02-14T13:24:12.404Z,2.60
2023-02-14T13:26:20.401Z,2.17
2023-02-14T13:28:24.278Z,2.90
2023-02-14T13:30:32.267Z,3.45
2023-02-14T13:32:41.544Z,2.60
2023-02-14T13:34:47.159Z,2.65
2023-02-14T13:36:50.829Z,2.90
2023-02-14T13:38:56.678Z,3.13
2023-02-14T13:41:05.476Z,3.05
2023-02-14T13:43:08.895Z,2.58
2023-02-14T13:45:52.388Z,2.80
2023-02-14T13:48:04.588Z,3.53
2023-02-14T13:50:22.001Z,3.35
2023-02-14T13:52:44.577Z,3.38
2023-02-14T13:54:49.586Z,3.05
2023-02-14T13:56:54.355Z,3.65
2023-02-14T13:59:00.660Z,2.35
2023-02-14T14:01:31.688Z,3.00
2023-02-14T14:03:55.405Z,2.63
2023-02-14T14:06:02.841Z,2.58
2023-02-14T14:08:35.201Z,3.10
2023-02-14T14:10:45.917Z,2.38
2023-02-14T14:12:52.213Z,2.97
2023-02-14T14:15:11.993Z,2.67
2023-02-14T14:17:29.474Z,3.15
2023-02-14T14:19:42.145Z,2.53
2023-02-14T14:22:00.358Z,2.10
2023-02-14T14:24:20.944Z,2.97
2023-02-14T14:26:36.524Z,3.00
2023-02-14T14:28:41.325Z,2.53
2023-02-14T14:30:45.711Z,3.22
2023-02-14T14:32:49.143Z,2.65
2023-02-14T14:34:54.782Z,2.67
2023-02-14T14:37:06.448Z,3.15
2023-02-14T14:39:11.289Z,2.97
2023-02-14T14:41:14.691Z,2.90
2023-02-14T14:43:25.631Z,2.67
2023-02-14T14:45:31.882Z,2.00
2023-02-14T14:47:42.027Z,3.45
2023-02-14T14:49:45.506Z,2.30
2023-02-14T14:51:50.006Z,2.20
2023-02-14T14:53:56.035Z,2.25
2023-02-14T14:55:59.987Z,2.13
2023-02-14T14:58:05.837Z,2.22
2023-02-14T15:00:20.670Z,3.17
2023-02-14T15:02:27.629Z,2.33
2023-02-14T15:04:33.349Z,2.35
2023-02-14T15:06:36.815Z,3.15
2023-02-14T15:08:40.077Z,2.45
2023-02-14T15:10:44.323Z,2.42
2023-02-14T15:13:04.975Z,2.88
2023-02-14T15:15:10.260Z,2.85
2023-02-14T15:17:20.311Z,2.78
2023-02-14T15:19:33.566Z,2.40
2023-02-14T15:21:37.316Z,3.85
2023-02-14T15:23:43.548Z,5.10
2023-02-14T15:25:49.050Z,2.65
2023-02-14T15:27:52.624Z,4.30
2023-02-14T15:29:58.516Z,3.20
2023-02-14T15:32:03.684Z,3.03
2023-02-14T15:34:08.397Z,2.83
2023-02-14T15:36:21.365Z,2.55
2023-02-14T15:38:26.226Z,2.47
2023-02-14T15:40:31.890Z,3.65
2023-02-14T15:42:42.245Z,3.03
2023-02-14T15:44:45.493Z,3.25
2023-02-14T15:46:49.610Z,3.40
2023-02-14T15:48:54.081Z,3.45
2023-02-14T15:51:00.034Z,2.08
2023-02-14T15:53:08.162Z,2.20
2023-02-14T15:55:13.247Z,2.40
2023-02-14T15:57:25.535Z,3.40
2023-02-14T15:59:31.185Z,2.75
2023-02-14T16:01:37.051Z,3.53
2023-02-14T16:03:43.885Z,1.65
2023-02-14T16:05:48.693Z,2.30
2023-02-14T16:08:00.610Z,2.15
2023-02-14T16:10:24.544Z,2.80
2023-02-14T16:12:35.466Z,2.78
2023-02-14T16:14:41.251Z,2.22
2023-02-14T16:17:02.712Z,2.60
2023-02-14T16:19:06.873Z,2.15
2023-02-14T16:21:15.812Z,3.28
2023-02-14T16:23:25.354Z,2.90
2023-02-14T16:25:28.677Z,3.70
2023-02-14T16:27:33.306Z,3.22
2023-02-14T16:29:37.504Z,2.92
2023-02-14T16:32:06.182Z,2.85
2023-02-14T16:34:07.953Z,2.95
2023-02-14T16:36:20.202Z,2.33
2023-02-14T16:38:23.900Z,2.70
2023-02-14T16:40:29.926Z,2.90
2023-02-14T16:42:37.075Z,3.05
2023-02-14T16:44:40.302Z,3.03
2023-02-14T16:46:44.026Z,3.63
2023-02-14T16:48:52.066Z,2.55
2023-02-14T16:50:55.454Z,3.33
2023-02-14T16:52:58.992Z,3.40
2023-02-14T16:55:02.259Z,3.30
2023-02-14T16:57:06.543Z,3.75
2023-02-14T16:59:11.471Z,3.50
2023-02-14T17:03:17.993Z,3.10
2023-02-14T17:05:21.357Z,3.30
2023-02-14T17:07:24.856Z,3.03
2023-02-14T17:09:34.506Z,4.05
2023-02-14T17:11:41.623Z,3.35
2023-02-14T17:13:46.881Z,3.42
2023-02-14T17:15:52.095Z,3.17
2023-02-14T17:18:00.319Z,3.30
2023-02-14T17:20:04.797Z,3.80
2023-02-14T17:22:08.732Z,3.95
2023-02-14T17:24:12.035Z,3.47
2023-02-14T17:26:16.393Z,4.40
2023-02-14T17:28:19.954Z,3.75
2023-02-14T17:30:24.198Z,3.85
2023-02-14T17:32:29.559Z,3.88
2023-02-14T17:34:33.329Z,4.30
2023-02-14T17:36:37.450Z,4.00
2023-02-14T17:38:43.511Z,4.07
2023-02-14T17:40:46.720Z,3.90
2023-02-14T17:42:50.338Z,4.60
2023-02-14T17:44:53.777Z,3.80
2023-02-14T17:46:58.111Z,3.58
2023-02-14T17:49:03.094Z,3.95
2023-02-14T17:51:07.086Z,4.55
2023-02-14T17:53:12.587Z,4.65
2023-02-14T17:55:17.208Z,4.55
2023-02-14T17:57:20.871Z,4.28
2023-02-14T17:59:24.414Z,9.38
2023-02-14T18:01:31.583Z,7.07
2023-02-14T18:03:35.460Z,20.77
2023-02-14T18:05:40.248Z,26.45
2023-02-14T18:07:44.432Z,6.13
2023-02-14T18:09:47.960Z,10.73
2023-02-14T18:11:51.314Z,10.95
2023-02-14T18:13:55.276Z,20.33
2023-02-14T18:15:58.885Z,21.90
2023-02-14T18:18:02.172Z,10.20
2023-02-14T18:20:06.543Z,8.52
2023-02-14T18:22:11.288Z,5.18
2023-02-14T18:24:15.838Z,20.92
2023-02-14T18:26:19.690Z,57.28
2023-02-14T18:28:23.939Z,29.90
2023-02-14T18:30:27.496Z,5.40
2023-02-14T18:32:30.778Z,5.40
2023-02-14T18:34:39.105Z,10.35
2023-02-14T18:36:45.465Z,14.63
2023-02-14T18:38:50.399Z,18.35
2023-02-14T18:40:53.728Z,22.35
2023-02-14T18:42:57.066Z,12.80
2023-02-14T18:45:00.422Z,25.88
2023-02-14T18:47:03.817Z,16.20
2023-02-14T18:49:08.524Z,8.30
2023-02-14T18:51:13.979Z,11.02
2023-02-14T18:53:17.472Z,43.70
2023-02-14T18:55:22.228Z,7.95
2023-02-14T18:57:25.889Z,24.20
2023-02-14T18:59:29.393Z,10.90
2023-02-14T19:01:36.848Z,22.08
2023-02-14T19:03:41.336Z,15.40
2023-02-14T19:05:44.634Z,32.35
2023-02-14T19:07:48.020Z,18.00
2023-02-14T19:09:51.412Z,15.65
2023-02-14T19:12:00.171Z,31.83
2023-02-14T19:14:09.633Z,14.25
2023-02-14T19:16:14.263Z,23.98
2023-02-14T19:18:17.746Z,15.75
2023-02-14T19:20:21.412Z,18.98
2023-02-14T19:22:24.736Z,5.82
2023-02-14T19:24:29.009Z,22.95
2023-02-14T19:26:35.054Z,12.07
2023-02-14T19:28:40.113Z,5.10
2023-02-14T19:32:47.279Z,4.85
2023-02-14T19:34:51.317Z,6.78
2023-02-14T19:36:56.281Z,7.68
2023-02-14T19:38:59.606Z,10.05
2023-02-14T19:41:03.203Z,4.78
2023-02-14T19:43:07.019Z,3.92
2023-02-14T19:45:12.292Z,4.22
2023-02-14T19:47:30.914Z,5.70
2023-02-14T19:49:40.238Z,6.25
2023-02-14T19:51:44.385Z,6.85
2023-02-14T19:53:47.782Z,3.95
2023-02-14T19:55:51.066Z,3.70
2023-02-14T19:57:55.398Z,4.97
2023-02-14T19:59:58.640Z,6.10
2023-02-14T20:02:04.837Z,4.40
2023-02-14T20:04:10.826Z,4.20
2023-02-14T20:06:14.344Z,4.88
2023-02-14T20:08:19.555Z,6.68
2023-02-14T20:12:25.833Z,29.70
2023-02-14T20:14:36.033Z,30.00
2023-02-14T20:16:44.400Z,7.93
2023-02-14T20:18:49.665Z,9.15
2023-02-14T20:21:05.385Z,16.15
2023-02-14T20:23:08.836Z,7.18
2023-02-14T20:25:12.369Z,4.63
2023-02-14T20:27:16.456Z,7.22
2023-02-14T20:29:21.602Z,12.13
2023-02-14T20:31:25.079Z,6.90
2023-02-14T20:33:28.683Z,5.72
2023-02-14T20:35:38.160Z,4.45
2023-02-14T20:37:41.541Z,4.68
2023-02-14T20:39:45.128Z,7.38
2023-02-14T20:41:50.067Z,5.90
2023-02-14T20:43:53.538Z,4.20
2023-02-14T20:46:00.135Z,13.57
2023-02-14T20:48:04.393Z,8.13
2023-02-14T20:50:08.971Z,4.70
2023-02-14T20:52:13.938Z,4.32
2023-02-14T20:54:18.196Z,9.02
2023-02-14T20:56:23.694Z,6.60
2023-02-14T20:58:27.097Z,7.82
2023-02-14T21:00:31.507Z,5.95
2023-02-14T21:02:35.117Z,4.13
2023-02-14T21:04:38.622Z,5.75
2023-02-14T21:06:42.237Z,5.75
2023-02-14T21:08:48.180Z,4.82
2023-02-14T21:10:51.673Z,4.93
2023-02-14T21:12:55.148Z,5.38
2023-02-14T21:14:59.168Z,4.65
2023-02-14T21:17:04.438Z,5.07
2023-02-14T21:19:12.342Z,5.18
2023-02-14T21:21:21.896Z,15.80
2023-02-14T21:23:25.623Z,5.45
2023-02-14T21:25:31.933Z,5.03
2023-02-14T21:27:36.449Z,13.00
2023-02-14T21:29:40.538Z,5.53
2023-02-14T21:31:43.914Z,4.68
2023-02-14T21:33:49.953Z,5.78
2023-02-14T21:35:53.268Z,5.85
2023-02-14T21:37:56.672Z,10.48
2023-02-14T21:40:00.157Z,5.35
2023-02-14T21:42:05.506Z,7.18
2023-02-14T21:44:09.036Z,6.15
2023-02-14T21:46:13.284Z,11.05
2023-02-14T21:48:34.522Z,6.80
2023-02-14T21:50:38.835Z,5.03
2023-02-14T21:52:42.081Z,6.80
2023-02-14T21:54:46.173Z,7.45
2023-02-14T21:56:50.513Z,4.47
2023-02-14T21:58:57.262Z,6.60
2023-02-14T22:01:00.994Z,4.78
2023-02-14T22:03:04.673Z,4.22
2023-02-14T22:05:09.158Z,5.65
2023-02-14T22:07:12.782Z,5.63
2023-02-14T22:09:17.595Z,3.65
2023-02-14T22:11:21.016Z,4.55
2023-02-14T22:13:24.592Z,4.43
2023-02-14T22:15:29.314Z,4.68
2023-02-14T22:17:34.466Z,4.28
2023-02-14T22:21:42.012Z,4.05
2023-02-14T22:23:45.926Z,4.60
2023-02-14T22:25:49.252Z,4.18
2023-02-14T22:27:52.921Z,4.05
2023-02-14T22:29:56.320Z,4.05
2023-02-14T22:32:01.125Z,4.47
2023-02-14T22:34:05.050Z,4.40
2023-02-14T22:36:09.696Z,4.45
2023-02-14T22:38:13.005Z,4.05
2023-02-14T22:40:16.364Z,4.28
2023-02-14T22:42:19.672Z,4.28
2023-02-14T22:44:23.113Z,4.30
2023-02-14T22:46:28.163Z,4.05
2023-02-14T22:50:36.723Z,4.03
2023-02-14T22:52:40.192Z,3.70
2023-02-14T22:54:43.871Z,3.25
2023-02-14T22:56:48.627Z,3.88
2023-02-14T22:58:54.902Z,4.43
2023-02-14T23:00:59.627Z,3.85
2023-02-14T23:03:05.684Z,4.03
2023-02-14T23:05:10.613Z,3.80
2023-02-14T23:07:13.893Z,3.47
2023-02-14T23:09:18.089Z,3.80
2023-02-14T23:11:23.453Z,3.83
2023-02-14T23:13:44.096Z,3.53
2023-02-14T23:16:04.826Z,3.97
2023-02-14T23:18:29.042Z,3.30
2023-02-14T23:20:53.491Z,3.30
2023-02-14T23:22:56.791Z,4.07
2023-02-14T23:25:02.559Z,4.03
2023-02-14T23:27:06.561Z,4.32
2023-02-14T23:29:09.909Z,4.95
2023-02-14T23:31:13.391Z,4.70
2023-02-14T23:33:16.787Z,4.22
2023-02-14T23:35:20.457Z,3.70
2023-02-14T23:37:25.505Z,4.25
2023-02-14T23:39:28.953Z,4.55
2023-02-14T23:41:49.856Z,4.85
2023-02-14T23:43:53.249Z,3.92
2023-02-14T23:45:56.620Z,4.93
2023-02-14T23:48:04.063Z,4.72
2023-02-14T23:50:08.577Z,4.47
2023-02-14T23:52:14.449Z,4.85
2023-02-14T23:54:20.236Z,4.15
2023-02-14T23:56:23.650Z,3.42
2023-02-14T23:58:26.977Z,3.67
